Time;durP1;ratioP1;P1;durP2;ratioP2;P2;SDS_P1;SDS_P2;PMS_P1;PMS_P2;Temp;Humidity;BMP_temperature;BMP_pressure;BME280_temperature;BME280_humidity;BME280_pressure;Samples;Min_cycle;Max_cycle;Signal;HPM_P1;HPM_P2
2023/12/01 00:00:52;;;;;;;31.25;16.02;;;;;;;;;;5042540;28;20033;-78
2023/12/01 00:03:18;;;;;;;30.27;14.57;;;;;;;;;;5033394;28;20474;-79
2023/12/01 00:05:44;;;;;;;36.25;16.27;;;;;;;;;;5044087;28;20495;-78
2023/12/01 00:08:10;;;;;;;32.72;15.45;;;;;;;;;;5034019;28;20475;-77
2023/12/01 00:10:36;;;;;;;27.58;14.10;;;;;;;;;;5039311;28;20532;-78
2023/12/01 00:13:02;;;;;;;30.92;15.00;;;;;;;;;;5050606;28;20032;-78
2023/12/01 00:15:28;;;;;;;33.25;17.00;;;;;;;;;;5041478;28;20029;-79
2023/12/01 00:17:54;;;;;;;36.92;16.50;;;;;;;;;;5044374;28;20025;-78
2023/12/01 00:20:20;;;;;;;33.83;16.08;;;;;;;;;;5042867;28;20038;-79
2023/12/01 00:22:46;;;;;;;30.48;15.10;;;;;;;;;;5048651;28;20245;-79
2023/12/01 00:25:12;;;;;;;36.03;16.98;;;;;;;;;;5050723;28;20017;-77
2023/12/01 00:27:38;;;;;;;32.28;14.93;;;;;;;;;;5048478;28;20060;-77
2023/12/01 00:30:05;;;;;;;31.77;16.38;;;;;;;;;;5031259;28;20029;-78
2023/12/01 00:32:31;;;;;;;34.47;16.42;;;;;;;;;;5048249;28;20068;-78
2023/12/01 00:34:57;;;;;;;35.95;17.65;;;;;;;;;;5046536;28;20029;-77
2023/12/01 00:37:23;;;;;;;41.17;18.42;;;;;;;;;;5038012;28;20045;-77
2023/12/01 00:39:49;;;;;;;39.47;18.00;;;;;;;;;;5038535;28;20079;-77
2023/12/01 00:42:15;;;;;;;44.22;19.20;;;;;;;;;;5049050;28;20037;-78
2023/12/01 00:44:41;;;;;;;42.00;18.67;;;;;;;;;;5052932;28;20029;-79
2023/12/01 00:47:07;;;;;;;39.08;17.23;;;;;;;;;;5045105;28;20040;-78
2023/12/01 00:49:33;;;;;;;39.20;17.15;;;;;;;;;;5050717;28;20056;-78
2023/12/01 00:51:59;;;;;;;38.38;17.52;;;;;;;;;;5037130;28;20422;-81
2023/12/01 00:54:25;;;;;;;36.10;16.95;;;;;;;;;;5034606;28;20134;-77
2023/12/01 00:56:51;;;;;;;35.30;15.95;;;;;;;;;;5041265;28;20422;-78
2023/12/01 00:59:17;;;;;;;34.35;16.77;;;;;;;;;;5036623;28;20403;-78
2023/12/01 01:01:43;;;;;;;34.13;14.95;;;;;;;;;;5049538;28;20475;-78
2023/12/01 01:04:10;;;;;;;36.40;16.85;;;;;;;;;;5036891;28;20073;-77
2023/12/01 01:06:36;;;;;;;35.80;14.68;;;;;;;;;;5036380;28;20044;-78
2023/12/01 01:09:03;;;;;;;35.17;15.60;;;;;;;;;;5041847;28;20466;-77
2023/12/01 01:11:29;;;;;;;29.05;14.10;;;;;;;;;;5053519;28;20053;-80
2023/12/01 01:13:56;;;;;;;28.33;13.90;;;;;;;;;;5044084;28;20092;-77
2023/12/01 01:16:22;;;;;;;30.65;14.23;;;;;;;;;;5043750;28;20036;-78
2023/12/01 01:18:49;;;;;;;31.50;14.23;;;;;;;;;;5046664;28;20651;-77
2023/12/01 01:21:15;;;;;;;31.50;15.60;;;;;;;;;;5043575;28;20029;-77
2023/12/01 01:23:41;;;;;;;28.55;13.85;;;;;;;;;;5043464;28;20025;-77
2023/12/01 01:26:07;;;;;;;30.60;14.73;;;;;;;;;;5042042;28;20056;-77
2023/12/01 01:28:33;;;;;;;30.05;14.10;;;;;;;;;;5021619;28;20162;-77
2023/12/01 01:30:59;;;;;;;31.42;13.30;;;;;;;;;;5044471;28;20029;-77
2023/12/01 01:33:25;;;;;;;29.10;13.85;;;;;;;;;;5038648;28;20060;-80
2023/12/01 01:35:51;;;;;;;23.85;12.90;;;;;;;;;;5051061;28;20502;-78
2023/12/01 01:38:17;;;;;;;27.20;12.35;;;;;;;;;;5043100;28;20037;-79
2023/12/01 01:40:43;;;;;;;28.83;14.10;;;;;;;;;;5049561;28;20037;-77
2023/12/01 01:43:19;;;;;;;30.00;14.48;;;;;;;;;;5051303;28;20387;-77
2023/12/01 01:45:45;;;;;;;30.63;14.10;;;;;;;;;;5039013;28;20104;-78
2023/12/01 01:48:11;;;;;;;27.05;13.70;;;;;;;;;;5044502;28;20028;-77
2023/12/01 01:50:37;;;;;;;29.90;14.50;;;;;;;;;;5037021;28;20106;-78
2023/12/01 01:53:04;;;;;;;29.52;15.07;;;;;;;;;;5036478;28;20049;-77
2023/12/01 01:55:30;;;;;;;26.85;13.75;;;;;;;;;;5041523;28;20471;-77
2023/12/01 01:57:56;;;;;;;27.40;13.65;;;;;;;;;;5047227;28;20051;-78
2023/12/01 02:00:23;;;;;;;30.20;13.13;;;;;;;;;;5041123;28;20097;-80
2023/12/01 02:02:49;;;;;;;26.42;13.32;;;;;;;;;;5051914;28;20047;-78
2023/12/01 02:05:15;;;;;;;29.05;15.05;;;;;;;;;;5037763;28;20038;-77
2023/12/01 02:07:41;;;;;;;30.98;14.45;;;;;;;;;;5044136;28;20076;-78
2023/12/01 02:10:15;;;;;;;27.90;14.90;;;;;;;;;;5042726;28;20069;-78
2023/12/01 02:12:41;;;;;;;24.75;13.55;;;;;;;;;;5044317;28;20037;-77
2023/12/01 02:15:10;;;;;;;28.90;13.25;;;;;;;;;;5049218;28;20060;-77
2023/12/01 02:17:37;;;;;;;25.52;14.55;;;;;;;;;;5033073;28;20445;-77
2023/12/01 02:20:05;;;;;;;29.42;13.75;;;;;;;;;;5040000;28;20083;-77
2023/12/01 02:22:31;;;;;;;25.65;13.65;;;;;;;;;;5043983;28;20032;-78
2023/12/01 02:24:58;;;;;;;26.35;12.57;;;;;;;;;;5047325;28;20053;-78
2023/12/01 02:27:24;;;;;;;26.20;13.73;;;;;;;;;;5043255;28;20044;-77
2023/12/01 02:29:50;;;;;;;26.33;13.45;;;;;;;;;;5051420;28;20033;-78
2023/12/01 02:32:16;;;;;;;31.88;14.10;;;;;;;;;;5044688;28;20033;-77
2023/12/01 02:34:45;;;;;;;28.67;12.77;;;;;;;;;;5050985;28;20060;-77
2023/12/01 02:37:11;;;;;;;28.55;13.55;;;;;;;;;;5032370;28;20475;-77
2023/12/01 02:39:37;;;;;;;28.05;12.85;;;;;;;;;;5040631;28;20471;-79
2023/12/01 02:42:03;;;;;;;27.33;12.85;;;;;;;;;;5041612;28;20041;-79
2023/12/01 02:44:30;;;;;;;25.90;13.15;;;;;;;;;;5041931;28;20029;-81
2023/12/01 02:46:56;;;;;;;26.13;12.70;;;;;;;;;;5044361;28;20095;-79
2023/12/01 02:49:24;;;;;;;29.63;13.60;;;;;;;;;;5050777;28;20037;-79
2023/12/01 02:51:50;;;;;;;25.30;11.32;;;;;;;;;;5043918;28;20053;-79
2023/12/01 02:54:16;;;;;;;23.35;12.10;;;;;;;;;;5035411;28;20029;-79
2023/12/01 02:56:42;;;;;;;21.90;11.07;;;;;;;;;;5031343;28;20029;-79
2023/12/01 02:59:08;;;;;;;23.92;11.93;;;;;;;;;;5032270;28;20033;-79
2023/12/01 03:01:34;;;;;;;27.75;12.93;;;;;;;;;;5040414;28;20483;-78
2023/12/01 03:04:00;;;;;;;25.00;12.75;;;;;;;;;;5049361;28;20474;-78
2023/12/01 03:06:26;;;;;;;25.20;12.57;;;;;;;;;;5045426;28;20510;-78
2023/12/01 03:08:52;;;;;;;22.80;12.00;;;;;;;;;;5044014;28;20127;-77
2023/12/01 03:11:23;;;;;;;21.65;11.85;;;;;;;;;;5023496;28;20033;-77
2023/12/01 03:13:50;;;;;;;26.23;13.68;;;;;;;;;;5037950;28;20034;-78
2023/12/01 03:16:16;;;;;;;24.67;13.20;;;;;;;;;;5046445;28;20086;-79
2023/12/01 03:18:42;;;;;;;24.25;12.30;;;;;;;;;;5016950;28;20098;-78
2023/12/01 03:21:12;;;;;;;25.30;13.32;;;;;;;;;;5049955;28;20029;-79
2023/12/01 03:23:40;;;;;;;22.10;11.80;;;;;;;;;;5040814;28;20118;-78
2023/12/01 03:26:08;;;;;;;23.33;12.18;;;;;;;;;;5034463;28;20045;-78
2023/12/01 03:28:34;;;;;;;23.35;11.93;;;;;;;;;;5039547;28;20918;-78
2023/12/01 03:31:00;;;;;;;21.90;12.90;;;;;;;;;;5049286;28;20048;-78
2023/12/01 03:33:26;;;;;;;19.30;11.38;;;;;;;;;;5042366;28;20035;-78
2023/12/01 03:35:52;;;;;;;22.15;12.20;;;;;;;;;;5031841;28;20033;-78
2023/12/01 03:38:18;;;;;;;22.73;13.48;;;;;;;;;;5039323;28;20132;-78
2023/12/01 03:40:45;;;;;;;25.05;13.32;;;;;;;;;;5035571;28;20029;-80
2023/12/01 03:43:11;;;;;;;24.83;12.57;;;;;;;;;;5049585;28;20086;-79
2023/12/01 03:45:37;;;;;;;25.70;14.82;;;;;;;;;;5039025;28;20029;-78
2023/12/01 03:48:03;;;;;;;27.10;15.35;;;;;;;;;;5020196;28;20037;-78
2023/12/01 03:50:29;;;;;;;26.15;14.93;;;;;;;;;;5037801;28;20034;-79
2023/12/01 03:52:56;;;;;;;26.13;15.15;;;;;;;;;;5041027;28;20103;-78
2023/12/01 03:55:22;;;;;;;25.33;14.85;;;;;;;;;;5017171;28;20034;-78
2023/12/01 03:57:48;;;;;;;25.67;14.27;;;;;;;;;;5020564;28;20033;-78
2023/12/01 04:00:16;;;;;;;26.83;15.73;;;;;;;;;;5049658;28;20041;-79
2023/12/01 04:02:45;;;;;;;30.08;15.88;;;;;;;;;;5048884;28;20037;-78
2023/12/01 04:05:18;;;;;;;25.50;14.57;;;;;;;;;;5037742;28;20025;-78
2023/12/01 04:07:50;;;;;;;28.90;15.00;;;;;;;;;;5036705;28;20034;-78
2023/12/01 04:10:16;;;;;;;26.33;14.95;;;;;;;;;;5037519;28;20034;-78
2023/12/01 04:12:44;;;;;;;24.75;14.68;;;;;;;;;;5044669;28;20033;-78
2023/12/01 04:15:12;;;;;;;24.20;14.48;;;;;;;;;;5046281;28;20079;-81
2023/12/01 04:17:42;;;;;;;29.08;14.32;;;;;;;;;;5040432;28;20131;-77
2023/12/01 04:20:20;;;;;;;25.10;14.27;;;;;;;;;;5041417;28;20029;-78
2023/12/01 04:22:47;;;;;;;24.42;13.85;;;;;;;;;;5035481;28;20364;-79
2023/12/01 04:25:13;;;;;;;24.80;14.45;;;;;;;;;;5038237;28;20357;-77
2023/12/01 04:27:39;;;;;;;26.65;14.93;;;;;;;;;;5046096;28;20041;-77
2023/12/01 04:30:13;;;;;;;26.88;15.07;;;;;;;;;;5035748;28;20048;-80
2023/12/01 04:32:40;;;;;;;26.98;16.55;;;;;;;;;;5050973;28;20559;-77
2023/12/01 04:35:06;;;;;;;25.85;13.45;;;;;;;;;;5010226;28;20037;-79
2023/12/01 04:37:32;;;;;;;27.55;14.63;;;;;;;;;;5027191;28;20182;-81
2023/12/01 04:39:59;;;;;;;28.40;14.60;;;;;;;;;;5030302;28;20029;-78
2023/12/01 04:42:25;;;;;;;29.60;16.33;;;;;;;;;;5038905;28;20113;-78
2023/12/01 04:44:51;;;;;;;28.05;15.20;;;;;;;;;;5046216;28;20025;-78
2023/12/01 04:47:17;;;;;;;27.15;14.65;;;;;;;;;;5040537;28;20041;-81
2023/12/01 04:49:43;;;;;;;27.23;14.75;;;;;;;;;;5040138;28;20021;-81
2023/12/01 04:52:09;;;;;;;32.25;16.02;;;;;;;;;;5016849;28;20053;-76
2023/12/01 04:54:36;;;;;;;28.63;15.32;;;;;;;;;;5030393;28;20029;-75
2023/12/01 04:57:04;;;;;;;31.15;15.55;;;;;;;;;;5036156;28;20042;-77
2023/12/01 04:59:31;;;;;;;29.80;16.05;;;;;;;;;;5045124;28;20391;-75
2023/12/01 05:01:57;;;;;;;30.95;15.38;;;;;;;;;;5031068;28;20059;-77
2023/12/01 05:04:23;;;;;;;37.45;21.45;;;;;;;;;;5036304;28;20034;-77
2023/12/01 05:06:50;;;;;;;33.00;17.17;;;;;;;;;;5043735;28;20037;-75
2023/12/01 05:09:21;;;;;;;32.08;16.60;;;;;;;;;;5041855;28;20056;-79
2023/12/01 05:11:47;;;;;;;28.80;15.02;;;;;;;;;;5045760;28;20105;-78
2023/12/01 05:14:13;;;;;;;29.67;16.73;;;;;;;;;;5038382;28;20044;-79
2023/12/01 05:16:41;;;;;;;32.47;16.50;;;;;;;;;;5039204;28;20069;-78
2023/12/01 05:19:07;;;;;;;27.58;14.93;;;;;;;;;;5040354;28;20029;-77
2023/12/01 05:21:34;;;;;;;31.02;16.50;;;;;;;;;;5045640;28;20033;-78
2023/12/01 05:24:00;;;;;;;30.17;15.65;;;;;;;;;;5024145;28;20429;-77
2023/12/01 05:26:26;;;;;;;37.30;16.15;;;;;;;;;;5043853;28;20041;-78
2023/12/01 05:28:52;;;;;;;29.08;16.08;;;;;;;;;;5051856;28;20108;-77
2023/12/01 05:31:18;;;;;;;31.88;16.55;;;;;;;;;;5043166;28;20040;-77
2023/12/01 05:33:46;;;;;;;32.50;17.05;;;;;;;;;;5051038;28;20033;-79
2023/12/01 05:36:16;;;;;;;27.80;15.43;;;;;;;;;;5035883;28;20390;-77
2023/12/01 05:38:44;;;;;;;34.90;17.25;;;;;;;;;;5053064;28;20079;-75
2023/12/01 05:41:10;;;;;;;30.42;15.93;;;;;;;;;;5053270;28;20478;-76
2023/12/01 05:43:39;;;;;;;29.33;16.10;;;;;;;;;;5041105;28;20544;-75
2023/12/01 05:46:06;;;;;;;27.67;15.18;;;;;;;;;;5036288;28;20095;-79
2023/12/01 05:48:33;;;;;;;29.20;14.68;;;;;;;;;;5039942;28;20037;-77
2023/12/01 05:50:59;;;;;;;32.83;15.43;;;;;;;;;;5049705;28;20040;-77
2023/12/01 05:53:26;;;;;;;32.70;15.50;;;;;;;;;;5045806;28;20038;-78
2023/12/01 05:55:52;;;;;;;28.83;16.48;;;;;;;;;;5052022;28;20036;-75
2023/12/01 05:58:18;;;;;;;28.45;15.88;;;;;;;;;;5051981;28;20039;-76
2023/12/01 06:00:44;;;;;;;34.25;16.50;;;;;;;;;;5052974;28;20196;-76
2023/12/01 06:03:10;;;;;;;59.25;31.50;;;;;;;;;;5051239;28;20099;-77
2023/12/01 06:05:37;;;;;;;32.03;16.80;;;;;;;;;;5032871;28;20029;-73
2023/12/01 06:08:04;;;;;;;45.22;21.73;;;;;;;;;;5050688;28;20029;-75
2023/12/01 06:10:31;;;;;;;30.35;16.45;;;;;;;;;;5051094;28;20017;-76
2023/12/01 06:12:58;;;;;;;30.33;15.52;;;;;;;;;;5051999;28;20033;-75
2023/12/01 06:15:29;;;;;;;33.88;17.50;;;;;;;;;;5050134;28;20421;-75
2023/12/01 06:17:55;;;;;;;39.28;17.13;;;;;;;;;;5038548;28;20045;-75
2023/12/01 06:20:22;;;;;;;32.17;16.30;;;;;;;;;;5034357;28;20089;-75
2023/12/01 06:22:59;;;;;;;30.77;15.05;;;;;;;;;;5029362;28;20029;-76
2023/12/01 06:25:28;;;;;;;32.53;15.40;;;;;;;;;;5048207;28;20052;-76
2023/12/01 06:27:58;;;;;;;32.03;16.17;;;;;;;;;;5047818;28;20044;-77
2023/12/01 06:30:24;;;;;;;32.75;15.32;;;;;;;;;;5041678;28;20029;-75
2023/12/01 06:32:51;;;;;;;36.85;17.88;;;;;;;;;;5039973;28;20063;-77
2023/12/01 06:35:18;;;;;;;30.00;14.75;;;;;;;;;;5039500;28;20017;-76
2023/12/01 06:37:45;;;;;;;32.20;15.75;;;;;;;;;;5043098;28;20037;-77
2023/12/01 06:40:12;;;;;;;34.17;16.88;;;;;;;;;;5042700;28;20083;-77
2023/12/01 06:42:39;;;;;;;34.67;16.40;;;;;;;;;;5051881;28;20496;-76
2023/12/01 06:45:06;;;;;;;31.52;16.23;;;;;;;;;;5043440;28;20118;-77
2023/12/01 06:47:33;;;;;;;32.08;15.25;;;;;;;;;;5044744;28;20045;-76
2023/12/01 06:49:59;;;;;;;29.42;14.85;;;;;;;;;;5047725;28;20037;-76
2023/12/01 06:52:25;;;;;;;36.15;16.70;;;;;;;;;;5044834;28;20053;-77
2023/12/01 06:54:51;;;;;;;32.40;16.05;;;;;;;;;;5051935;28;20032;-77
2023/12/01 06:57:17;;;;;;;36.65;16.83;;;;;;;;;;5046985;28;20033;-77
2023/12/01 06:59:43;;;;;;;30.83;16.58;;;;;;;;;;5045055;28;20545;-78
2023/12/01 07:02:09;;;;;;;32.53;16.25;;;;;;;;;;5036106;28;20032;-77
2023/12/01 07:04:35;;;;;;;37.40;17.50;;;;;;;;;;5051399;28;20047;-77
2023/12/01 07:07:02;;;;;;;36.10;18.55;;;;;;;;;;5045010;28;20041;-77
2023/12/01 07:09:28;;;;;;;32.55;16.50;;;;;;;;;;5044599;28;20118;-76
2023/12/01 07:11:55;;;;;;;37.17;16.58;;;;;;;;;;5047046;28;20059;-76
2023/12/01 07:14:23;;;;;;;29.85;16.08;;;;;;;;;;5047619;28;20483;-76
2023/12/01 07:16:49;;;;;;;38.60;19.45;;;;;;;;;;5023496;28;20083;-76
2023/12/01 07:19:16;;;;;;;35.22;17.02;;;;;;;;;;5046388;28;20036;-76
2023/12/01 07:21:45;;;;;;;28.83;15.20;;;;;;;;;;5042661;28;20028;-77
2023/12/01 07:24:12;;;;;;;32.40;14.73;;;;;;;;;;5033123;28;20032;-76
2023/12/01 07:26:38;;;;;;;32.08;15.50;;;;;;;;;;5049581;28;20043;-76
2023/12/01 07:29:04;;;;;;;36.85;18.17;;;;;;;;;;5031174;28;20068;-79
2023/12/01 07:31:32;;;;;;;40.10;18.92;;;;;;;;;;5041194;28;20041;-76
2023/12/01 07:33:58;;;;;;;44.33;19.95;;;;;;;;;;5030803;28;20039;-76
2023/12/01 07:36:24;;;;;;;44.20;20.48;;;;;;;;;;5050061;28;20040;-78
2023/12/01 07:38:50;;;;;;;40.53;20.48;;;;;;;;;;5041364;28;20475;-79
2023/12/01 07:41:16;;;;;;;34.90;17.88;;;;;;;;;;5043469;28;20466;-82
2023/12/01 07:43:42;;;;;;;38.30;18.38;;;;;;;;;;5042591;28;20486;-77
2023/12/01 07:46:08;;;;;;;35.72;18.20;;;;;;;;;;5019876;28;20049;-78
2023/12/01 07:48:35;;;;;;;35.53;17.65;;;;;;;;;;5012887;28;20091;-77
2023/12/01 07:51:02;;;;;;;48.90;21.63;;;;;;;;;;5031820;28;20037;-80
2023/12/01 07:53:28;;;;;;;40.00;20.75;;;;;;;;;;5035353;28;20036;-81
2023/12/01 07:55:54;;;;;;;140.43;64.68;;;;;;;;;;5034685;28;20036;-77
2023/12/01 07:58:20;;;;;;;44.50;21.02;;;;;;;;;;5049388;28;20032;-80
2023/12/01 08:00:47;;;;;;;46.05;21.02;;;;;;;;;;5037903;28;20509;-78
2023/12/01 08:03:13;;;;;;;46.05;19.83;;;;;;;;;;5034520;28;20021;-80
2023/12/01 08:05:39;;;;;;;63.40;25.45;;;;;;;;;;5049455;28;20478;-79
2023/12/01 08:08:06;;;;;;;61.00;24.52;;;;;;;;;;5033970;28;20160;-79
2023/12/01 08:10:32;;;;;;;52.75;24.55;;;;;;;;;;5033643;28;20429;-80
2023/12/01 08:12:58;;;;;;;40.08;20.00;;;;;;;;;;5036781;28;20048;-80
2023/12/01 08:15:25;;;;;;;40.15;18.90;;;;;;;;;;5043668;28;20110;-80
2023/12/01 08:17:51;;;;;;;35.53;17.13;;;;;;;;;;5048721;28;20033;-78
2023/12/01 08:20:18;;;;;;;38.22;17.73;;;;;;;;;;5041254;28;20074;-79
2023/12/01 08:22:46;;;;;;;37.58;15.90;;;;;;;;;;5020175;28;20033;-76
2023/12/01 08:25:15;;;;;;;37.38;17.00;;;;;;;;;;5045746;28;20371;-78
2023/12/01 08:27:41;;;;;;;38.80;16.77;;;;;;;;;;5042750;28;20037;-76
2023/12/01 08:30:08;;;;;;;32.88;15.50;;;;;;;;;;5046046;28;20060;-79
2023/12/01 08:32:34;;;;;;;34.60;16.70;;;;;;;;;;5022147;28;20052;-80
2023/12/01 08:35:01;;;;;;;34.55;17.17;;;;;;;;;;5037618;28;20032;-79
2023/12/01 08:37:27;;;;;;;36.53;15.90;;;;;;;;;;5037025;28;20040;-77
2023/12/01 08:39:54;;;;;;;32.63;16.35;;;;;;;;;;5021745;28;20054;-80
2023/12/01 08:42:20;;;;;;;35.05;16.92;;;;;;;;;;5034190;28;20032;-78
2023/12/01 08:44:46;;;;;;;38.78;16.50;;;;;;;;;;5042826;28;20025;-79
2023/12/01 08:47:13;;;;;;;35.28;16.00;;;;;;;;;;5047882;28;20041;-79
2023/12/01 08:49:42;;;;;;;37.03;17.05;;;;;;;;;;5044430;28;20026;-80
2023/12/01 08:52:09;;;;;;;36.72;18.15;;;;;;;;;;5046871;28;20054;-79
2023/12/01 08:54:35;;;;;;;33.55;17.45;;;;;;;;;;5051865;28;20033;-79
2023/12/01 08:57:01;;;;;;;30.30;15.15;;;;;;;;;;5035796;28;20412;-77
2023/12/01 08:59:27;;;;;;;37.60;17.60;;;;;;;;;;5044047;28;20033;-78
2023/12/01 09:01:54;;;;;;;40.50;17.88;;;;;;;;;;5024394;28;20033;-79
2023/12/01 09:04:21;;;;;;;36.08;17.55;;;;;;;;;;5040983;28;20086;-79
2023/12/01 09:06:47;;;;;;;40.47;17.00;;;;;;;;;;5039884;28;20041;-77
2023/12/01 09:09:13;;;;;;;34.40;16.30;;;;;;;;;;5038831;28;20048;-77
2023/12/01 09:11:39;;;;;;;38.35;18.33;;;;;;;;;;5045115;28;20037;-78
2023/12/01 09:14:05;;;;;;;38.42;17.85;;;;;;;;;;5048131;28;20036;-78
2023/12/01 09:16:31;;;;;;;37.20;17.95;;;;;;;;;;5036316;28;20040;-82
2023/12/01 09:18:57;;;;;;;58.47;27.35;;;;;;;;;;5039524;28;20025;-82
2023/12/01 09:21:23;;;;;;;49.00;21.52;;;;;;;;;;5043604;28;20032;-81
2023/12/01 09:23:50;;;;;;;35.35;17.73;;;;;;;;;;5042318;28;20709;-77
2023/12/01 09:26:19;;;;;;;32.92;16.55;;;;;;;;;;5050533;28;20033;-79
2023/12/01 09:28:45;;;;;;;36.63;17.02;;;;;;;;;;5035457;28;20037;-79
2023/12/01 09:31:12;;;;;;;29.83;15.48;;;;;;;;;;5047137;28;20029;-79
2023/12/01 09:33:39;;;;;;;32.90;16.65;;;;;;;;;;5025699;28;20124;-79
2023/12/01 09:36:05;;;;;;;31.17;15.18;;;;;;;;;;5053146;28;20490;-79
2023/12/01 09:38:32;;;;;;;35.97;16.63;;;;;;;;;;5045055;28;20082;-78
2023/12/01 09:40:58;;;;;;;38.35;16.73;;;;;;;;;;5044320;28;20033;-80
2023/12/01 09:43:24;;;;;;;32.88;16.08;;;;;;;;;;5051238;28;20053;-76
2023/12/01 09:45:50;;;;;;;32.20;15.55;;;;;;;;;;5033643;28;20367;-78
2023/12/01 09:48:19;;;;;;;31.77;16.33;;;;;;;;;;5040870;28;20094;-81
2023/12/01 09:50:45;;;;;;;33.15;15.88;;;;;;;;;;5040770;28;20446;-77
2023/12/01 09:53:11;;;;;;;34.05;15.95;;;;;;;;;;5040204;28;20053;-79
2023/12/01 09:55:38;;;;;;;32.70;15.93;;;;;;;;;;5033305;28;20033;-77
2023/12/01 09:58:05;;;;;;;32.17;15.07;;;;;;;;;;5041831;28;20109;-78
2023/12/01 10:00:31;;;;;;;31.80;15.73;;;;;;;;;;5032524;28;20032;-78
2023/12/01 10:02:57;;;;;;;29.38;15.35;;;;;;;;;;5043362;28;20057;-79
2023/12/01 10:05:25;;;;;;;29.13;14.68;;;;;;;;;;5049520;28;20037;-78
2023/12/01 10:07:51;;;;;;;28.70;14.85;;;;;;;;;;5051243;28;20068;-79
2023/12/01 10:10:20;;;;;;;31.15;14.95;;;;;;;;;;5032850;28;20056;-79
2023/12/01 10:12:58;;;;;;;30.75;14.98;;;;;;;;;;5050746;28;20033;-82
2023/12/01 10:15:25;;;;;;;27.70;14.15;;;;;;;;;;5040496;28;20546;-79
2023/12/01 10:17:55;;;;;;;30.75;14.68;;;;;;;;;;5047092;28;20395;-81
2023/12/01 10:20:21;;;;;;;27.98;15.38;;;;;;;;;;5046012;28;20033;-77
2023/12/01 10:22:49;;;;;;;29.60;15.77;;;;;;;;;;5050757;28;20033;-81
2023/12/01 10:25:17;;;;;;;31.08;15.13;;;;;;;;;;5040826;28;20022;-82
2023/12/01 10:27:53;;;;;;;25.42;14.02;;;;;;;;;;5041533;28;20425;-83
2023/12/01 10:30:20;;;;;;;22.52;13.85;;;;;;;;;;5052357;28;20544;-80
2023/12/01 10:32:47;;;;;;;26.13;14.00;;;;;;;;;;5049478;28;20508;-78
2023/12/01 10:35:13;;;;;;;28.10;16.60;;;;;;;;;;5038842;28;20021;-80
2023/12/01 10:37:39;;;;;;;27.90;16.40;;;;;;;;;;5032281;28;20034;-75
2023/12/01 10:40:06;;;;;;;24.23;13.80;;;;;;;;;;5035076;28;20079;-78
2023/12/01 10:42:35;;;;;;;22.48;12.95;;;;;;;;;;5048556;28;20029;-78
2023/12/01 10:45:04;;;;;;;23.98;13.55;;;;;;;;;;5041314;28;20038;-78
2023/12/01 10:47:31;;;;;;;22.52;13.65;;;;;;;;;;5035603;28;20037;-78
2023/12/01 10:49:58;;;;;;;22.27;12.90;;;;;;;;;;5036198;28;20033;-79
2023/12/01 10:52:29;;;;;;;19.98;12.90;;;;;;;;;;5036468;28;20529;-80
2023/12/01 10:54:55;;;;;;;20.77;12.88;;;;;;;;;;5041525;28;20033;-80
2023/12/01 10:57:40;;;;;;;19.85;12.80;;;;;;;;;;5043033;28;20445;-81
2023/12/01 11:00:29;;;;;;;18.95;11.85;;;;;;;;;;5034230;28;20490;-80
2023/12/01 11:02:55;;;;;;;19.13;11.77;;;;;;;;;;5032153;28;20073;-79
2023/12/01 11:05:21;;;;;;;20.73;12.05;;;;;;;;;;5050491;28;20036;-80
2023/12/01 11:08:01;;;;;;;17.30;11.27;;;;;;;;;;5046394;28;20488;-81
2023/12/01 11:11:07;;;;;;;16.73;11.32;;;;;;;;;;5045485;28;20425;-82
2023/12/01 11:13:41;;;;;;;18.98;11.75;;;;;;;;;;4955992;28;20453;-82
2023/12/01 11:16:07;;;;;;;18.80;11.88;;;;;;;;;;5033972;28;20045;-82
2023/12/01 11:18:33;;;;;;;20.42;12.50;;;;;;;;;;5043244;28;20853;-80
2023/12/01 11:20:59;;;;;;;21.30;13.65;;;;;;;;;;5035105;28;20108;-80
2023/12/01 11:23:26;;;;;;;21.30;12.70;;;;;;;;;;5021597;28;20033;-82
2023/12/01 11:26:05;;;;;;;19.52;12.30;;;;;;;;;;5045124;28;20033;-80
2023/12/01 11:33:59;;;;;;;19.33;11.32;;;;;;;;;;5038533;28;20037;-81
2023/12/01 11:36:32;;;;;;;20.23;12.48;;;;;;;;;;5049348;28;20040;-80
2023/12/01 11:39:16;;;;;;;19.38;11.45;;;;;;;;;;5038148;28;20043;-83
2023/12/01 11:41:43;;;;;;;22.17;11.60;;;;;;;;;;5046495;28;20479;-79
2023/12/01 11:44:11;;;;;;;19.67;11.35;;;;;;;;;;5045995;28;20100;-78
2023/12/01 11:46:38;;;;;;;22.48;12.65;;;;;;;;;;5041776;28;20041;-78
2023/12/01 11:49:05;;;;;;;19.40;11.88;;;;;;;;;;5036615;28;20040;-77
2023/12/01 11:51:31;;;;;;;20.38;11.70;;;;;;;;;;5016237;28;20049;-77
2023/12/01 11:54:01;;;;;;;21.85;12.75;;;;;;;;;;5046406;28;20029;-80
2023/12/01 11:56:28;;;;;;;22.02;12.70;;;;;;;;;;5039330;28;20072;-80
2023/12/01 11:58:54;;;;;;;20.30;11.55;;;;;;;;;;5034275;28;20025;-79
2023/12/01 12:01:22;;;;;;;17.35;10.77;;;;;;;;;;5033177;28;20110;-79
2023/12/01 12:03:55;;;;;;;19.42;11.75;;;;;;;;;;5032299;28;20479;-78
2023/12/01 12:06:23;;;;;;;20.98;11.80;;;;;;;;;;5047324;28;20124;-77
2023/12/01 12:08:50;;;;;;;18.80;10.98;;;;;;;;;;5038571;28;20036;-76
2023/12/01 12:11:17;;;;;;;20.95;12.35;;;;;;;;;;5049062;28;20116;-76
2023/12/01 12:13:44;;;;;;;17.23;11.27;;;;;;;;;;5055290;28;20026;-76
2023/12/01 12:16:12;;;;;;;23.42;12.27;;;;;;;;;;5047468;28;20422;-76
2023/12/01 12:18:39;;;;;;;20.08;12.25;;;;;;;;;;5036699;28;20036;-77
2023/12/01 12:21:05;;;;;;;18.75;11.38;;;;;;;;;;5043056;28;20029;-75
2023/12/01 12:23:32;;;;;;;20.63;11.40;;;;;;;;;;5047087;28;20060;-74
2023/12/01 12:26:14;;;;;;;21.63;11.85;;;;;;;;;;5050021;28;20043;-75
2023/12/01 12:28:40;;;;;;;25.15;12.50;;;;;;;;;;5056412;28;20040;-76
2023/12/01 12:31:07;;;;;;;18.27;11.57;;;;;;;;;;5048668;28;20474;-75
2023/12/01 12:33:33;;;;;;;21.38;12.70;;;;;;;;;;5050769;28;20509;-75
2023/12/01 12:36:01;;;;;;;25.02;14.57;;;;;;;;;;5051798;28;20044;-73
2023/12/01 12:38:27;;;;;;;22.30;13.88;;;;;;;;;;5052305;28;20021;-73
2023/12/01 12:40:54;;;;;;;21.30;12.02;;;;;;;;;;5051038;28;20036;-75
2023/12/01 12:43:22;;;;;;;26.17;13.65;;;;;;;;;;5036650;28;20033;-76
2023/12/01 12:45:51;;;;;;;21.73;12.23;;;;;;;;;;5049474;28;20491;-76
2023/12/01 12:48:17;;;;;;;23.92;12.85;;;;;;;;;;5055763;28;20047;-77
2023/12/01 12:50:43;;;;;;;20.17;12.65;;;;;;;;;;5055462;28;20386;-76
2023/12/01 12:53:09;;;;;;;21.67;12.48;;;;;;;;;;5056666;28;20072;-75
2023/12/01 12:55:35;;;;;;;19.17;12.02;;;;;;;;;;5031059;28;20032;-76
2023/12/01 12:58:02;;;;;;;24.70;13.38;;;;;;;;;;5039154;28;20034;-76
2023/12/01 13:00:28;;;;;;;17.90;10.57;;;;;;;;;;5055396;28;20039;-76
2023/12/01 13:02:54;;;;;;;20.83;13.43;;;;;;;;;;5056110;28;20032;-76
2023/12/01 13:05:21;;;;;;;21.17;12.38;;;;;;;;;;5053873;28;20036;-76
2023/12/01 13:07:47;;;;;;;23.40;11.70;;;;;;;;;;5056990;28;20029;-76
2023/12/01 13:10:14;;;;;;;19.48;11.52;;;;;;;;;;5057346;28;20082;-76
2023/12/01 13:12:40;;;;;;;23.90;13.32;;;;;;;;;;5042159;28;20386;-76
2023/12/01 13:15:06;;;;;;;17.50;11.38;;;;;;;;;;5060660;28;20105;-76
2023/12/01 13:17:32;;;;;;;21.55;12.15;;;;;;;;;;5054446;28;20094;-76
2023/12/01 13:19:59;;;;;;;20.45;12.50;;;;;;;;;;5055956;28;20415;-76
2023/12/01 13:22:25;;;;;;;18.30;11.48;;;;;;;;;;5053951;28;20033;-76
2023/12/01 13:24:51;;;;;;;20.17;12.75;;;;;;;;;;5051727;28;20537;-77
2023/12/01 13:27:17;;;;;;;20.63;12.07;;;;;;;;;;5053476;28;20043;-77
2023/12/01 13:29:44;;;;;;;21.55;13.02;;;;;;;;;;5039232;28;20390;-76
2023/12/01 13:32:10;;;;;;;17.98;11.77;;;;;;;;;;5050552;28;20029;-76
2023/12/01 13:34:37;;;;;;;18.10;11.43;;;;;;;;;;5050740;28;20029;-77
2023/12/01 13:37:03;;;;;;;19.20;11.55;;;;;;;;;;5032715;28;20056;-76
2023/12/01 13:39:29;;;;;;;20.35;11.23;;;;;;;;;;5035164;28;20036;-76
2023/12/01 13:41:55;;;;;;;18.83;11.70;;;;;;;;;;5042461;28;20044;-76
2023/12/01 13:44:25;;;;;;;19.13;11.23;;;;;;;;;;5052614;28;20029;-76
2023/12/01 13:46:51;;;;;;;25.02;11.85;;;;;;;;;;5040915;28;20034;-76
2023/12/01 13:49:18;;;;;;;19.23;11.30;;;;;;;;;;5021892;28;20080;-76
2023/12/01 13:51:44;;;;;;;22.52;11.65;;;;;;;;;;5033214;28;20160;-76
2023/12/01 13:54:11;;;;;;;20.58;12.07;;;;;;;;;;5032111;28;20030;-76
2023/12/01 13:56:37;;;;;;;22.73;12.82;;;;;;;;;;5034987;28;20489;-76
2023/12/01 13:59:03;;;;;;;19.23;11.90;;;;;;;;;;5048493;28;20052;-77
2023/12/01 14:01:29;;;;;;;21.88;12.68;;;;;;;;;;5029949;28;20041;-77
2023/12/01 14:03:55;;;;;;;21.35;12.95;;;;;;;;;;5051802;28;20036;-77
2023/12/01 14:06:24;;;;;;;21.50;11.57;;;;;;;;;;5039912;28;20053;-77
2023/12/01 14:08:51;;;;;;;21.35;12.35;;;;;;;;;;5051891;28;20044;-77
2023/12/01 14:11:17;;;;;;;19.42;11.40;;;;;;;;;;5047079;28;20037;-77
2023/12/01 14:13:45;;;;;;;20.52;12.18;;;;;;;;;;5048411;28;20033;-75
2023/12/01 14:16:11;;;;;;;19.55;11.05;;;;;;;;;;5046761;28;20119;-75
2023/12/01 14:18:37;;;;;;;17.67;10.55;;;;;;;;;;5045182;28;20107;-76
2023/12/01 14:21:03;;;;;;;18.92;10.95;;;;;;;;;;5043049;28;20422;-76